Time;durP1;ratioP1;P1;durP2;ratioP2;P2;SDS_P1;SDS_P2;PMS_P1;PMS_P2;Temp;Humidity;BMP_temperature;BMP_pressure;BME280_temperature;BME280_humidity;BME280_pressure;Samples;Min_cycle;Max_cycle;Signal;HPM_P1;HPM_P2
2022/09/16 00:00:30;;;;;;;11.60;5.40;;;;;11.20;93586.00;;;;7395342;19;20480;-80
2022/09/16 00:02:58;;;;;;;8.52;5.53;;;;;11.10;93582.00;;;;7391606;19;20141;-79
2022/09/16 00:05:32;;;;;;;11.07;5.65;;;;;11.10;93585.00;;;;7398497;19;20130;-81
2022/09/16 00:07:59;;;;;;;7.07;5.68;;;;;11.10;93584.00;;;;7393237;19;20610;-80
2022/09/16 00:10:27;;;;;;;11.30;5.55;;;;;11.00;93582.00;;;;7397443;19;20159;-80
2022/09/16 00:13:08;;;;;;;6.22;5.30;;;;;11.00;93588.00;;;;7396680;19;20124;-80
2022/09/16 00:15:42;;;;;;;6.78;5.38;;;;;11.00;93588.00;;;;7397216;19;20144;-79
2022/09/16 00:18:17;;;;;;;9.45;5.90;;;;;10.90;93584.00;;;;7392926;19;20208;-79
2022/09/16 00:20:50;;;;;;;8.82;5.03;;;;;10.90;93578.00;;;;7393389;19;20466;-80
2022/09/16 00:23:23;;;;;;;9.13;5.25;;;;;11.00;93581.00;;;;7394161;19;20152;-80
2022/09/16 00:25:54;;;;;;;8.90;6.30;;;;;11.00;93580.00;;;;7392681;19;20603;-80
2022/09/16 00:28:25;;;;;;;17.92;6.25;;;;;11.00;93581.00;;;;7397711;19;20117;-79
2022/09/16 00:31:03;;;;;;;16.05;6.03;;;;;11.00;93579.00;;;;7394551;19;20133;-80
2022/09/16 00:33:31;;;;;;;9.57;6.55;;;;;11.10;93591.00;;;;7397715;19;20168;-81
2022/09/16 00:36:06;;;;;;;16.15;7.13;;;;;11.10;93581.00;;;;7392384;19;20169;-80
2022/09/16 00:38:40;;;;;;;8.15;6.03;;;;;11.20;93581.00;;;;7397177;19;20125;-80
2022/09/16 00:41:14;;;;;;;6.88;5.93;;;;;11.20;93582.00;;;;7393468;19;20207;-78
2022/09/16 00:43:57;;;;;;;11.85;7.03;;;;;11.30;93576.00;;;;7397388;19;20129;-80
2022/09/16 00:46:55;;;;;;;13.10;6.15;;;;;11.30;93574.00;;;;7391398;19;20137;-78
2022/09/16 00:49:33;;;;;;;10.65;6.82;;;;;11.30;93578.00;;;;7391917;19;20592;-79
2022/09/16 00:52:10;;;;;;;8.13;6.30;;;;;11.30;93578.00;;;;7394308;19;20145;-80
2022/09/16 00:54:39;;;;;;;11.00;6.68;;;;;11.40;93580.00;;;;7392233;19;20129;-81
2022/09/16 00:57:10;;;;;;;11.85;6.03;;;;;11.40;93577.00;;;;7391072;19;20129;-80
2022/09/16 00:59:48;;;;;;;12.70;7.68;;;;;11.50;93575.00;;;;7392432;19;20667;-80
2022/09/16 01:02:20;;;;;;;9.38;6.95;;;;;11.50;93576.00;;;;7395067;19;20123;-80
2022/09/16 01:05:12;;;;;;;10.85;7.30;;;;;11.50;93574.00;;;;7391343;19;20136;-79
2022/09/16 01:07:46;;;;;;;8.13;6.32;;;;;11.50;93571.00;;;;7395245;19;20133;-80
2022/09/16 01:10:25;;;;;;;11.85;6.53;;;;;11.40;93568.00;;;;7390879;19;20136;-81
2022/09/16 01:13:05;;;;;;;8.38;5.88;;;;;11.40;93570.00;;;;7392873;19;20972;-79
2022/09/16 01:16:00;;;;;;;8.35;6.10;;;;;11.40;93566.00;;;;7390867;19;20159;-80
2022/09/16 01:18:42;;;;;;;8.45;6.63;;;;;11.30;93552.00;;;;7393676;19;20163;-79
2022/09/16 01:21:40;;;;;;;14.32;7.18;;;;;11.40;93562.00;;;;7391460;19;20141;-81
2022/09/16 01:24:22;;;;;;;10.65;6.28;;;;;11.30;93561.00;;;;7391177;19;20693;-79
2022/09/16 01:27:10;;;;;;;9.95;7.20;;;;;11.40;93560.00;;;;7390729;19;20136;-79
2022/09/16 01:30:13;;;;;;;11.95;6.65;;;;;11.40;93564.00;;;;7390075;19;20142;-80
2022/09/16 01:33:07;;;;;;;12.55;8.10;;;;;11.50;93569.00;;;;7393365;19;20164;-80
2022/09/16 01:35:53;;;;;;;14.20;9.63;;;;;11.50;93566.00;;;;7389704;19;20152;-80
2022/09/16 01:39:06;;;;;;;10.57;8.35;;;;;11.60;93568.00;;;;7394232;19;20132;-80
2022/09/16 01:41:59;;;;;;;11.50;8.80;;;;;11.60;93571.00;;;;7389840;19;20475;-80
2022/09/16 01:44:51;;;;;;;14.15;9.55;;;;;11.60;93570.00;;;;7391837;19;20151;-80
2022/09/16 01:47:38;;;;;;;11.40;8.55;;;;;11.60;93575.00;;;;7388122;19;20538;-80
2022/09/16 01:50:25;;;;;;;11.43;8.13;;;;;11.60;93572.00;;;;7388646;19;20162;-80
2022/09/16 01:53:17;;;;;;;10.40;8.45;;;;;11.60;93575.00;;;;7393924;19;20603;-81
2022/09/16 01:55:59;;;;;;;10.45;8.82;;;;;11.50;93562.00;;;;7391866;19;20589;-80
2022/09/16 01:58:42;;;;;;;14.13;9.07;;;;;11.50;93564.00;;;;7394998;19;20143;-80
2022/09/16 02:01:28;;;;;;;9.73;7.82;;;;;11.50;93559.00;;;;7395727;19;20133;-80
2022/09/16 02:04:05;;;;;;;9.63;7.38;;;;;11.40;93566.00;;;;7392169;19;20129;-79
2022/09/16 02:06:43;;;;;;;10.13;7.70;;;;;11.40;93557.00;;;;7390542;19;20181;-78
2022/09/16 02:09:22;;;;;;;17.80;8.52;;;;;11.40;93561.00;;;;7396423;19;20125;-79
2022/09/16 02:12:04;;;;;;;11.73;8.20;;;;;11.40;93560.00;;;;7393615;19;20136;-79
2022/09/16 02:14:37;;;;;;;11.25;7.82;;;;;11.40;93557.00;;;;7390710;19;20158;-79
2022/09/16 02:17:16;;;;;;;13.63;9.95;;;;;11.40;93558.00;;;;7391202;19;20216;-79
2022/09/16 02:19:54;;;;;;;19.20;9.10;;;;;11.50;93559.00;;;;7388156;19;20166;-81
2022/09/16 02:22:42;;;;;;;15.40;9.23;;;;;11.50;93552.00;;;;7392131;19;20139;-79
2022/09/16 02:25:13;;;;;;;15.07;10.20;;;;;11.40;93555.00;;;;7394309;19;20138;-78
2022/09/16 02:27:49;;;;;;;14.65;9.30;;;;;11.50;93553.00;;;;7401528;19;20144;-80
2022/09/16 02:30:20;;;;;;;13.18;9.48;;;;;11.50;93547.00;;;;7395274;19;20617;-79
2022/09/16 02:33:01;;;;;;;16.45;11.10;;;;;11.50;93551.00;;;;7401512;19;20620;-80
2022/09/16 02:35:30;;;;;;;14.05;10.60;;;;;11.50;93550.00;;;;7397588;19;20131;-80
2022/09/16 02:38:44;;;;;;;16.55;11.00;;;;;11.50;93554.00;;;;7400055;19;20618;-79
2022/09/16 02:41:13;;;;;;;13.40;10.18;;;;;11.50;93559.00;;;;7394014;19;20125;-79
2022/09/16 02:43:49;;;;;;;13.93;11.15;;;;;11.60;93565.00;;;;7397057;19;20487;-79
2022/09/16 02:46:36;;;;;;;15.35;11.40;;;;;11.70;93561.00;;;;7399188;19;20127;-80
2022/09/16 02:49:41;;;;;;;12.93;10.05;;;;;11.70;93556.00;;;;7393167;19;20152;-80
2022/09/16 02:52:33;;;;;;;12.70;9.38;;;;;11.70;93553.00;;;;7397260;19;20490;-79
2022/09/16 02:55:33;;;;;;;16.00;11.43;;;;;11.80;93553.00;;;;7397324;19;20220;-79
2022/09/16 02:58:00;;;;;;;15.32;9.80;;;;;11.80;93549.00;;;;7400166;19;20140;-80
2022/09/16 03:00:45;;;;;;;15.13;10.50;;;;;11.80;93545.00;;;;7396281;19;20129;-80
2022/09/16 03:03:13;;;;;;;12.55;9.80;;;;;11.80;93551.00;;;;7401243;19;20133;-81
2022/09/16 03:06:11;;;;;;;13.63;10.32;;;;;11.80;93543.00;;;;7395564;19;20475;-81
2022/09/16 03:08:40;;;;;;;14.55;10.30;;;;;11.80;93553.00;;;;7399819;19;20149;-81
2022/09/16 03:11:58;;;;;;;12.30;8.82;;;;;11.80;93550.00;;;;7396507;19;20486;-81
2022/09/16 03:14:52;;;;;;;11.85;9.50;;;;;11.80;93545.00;;;;7395170;19;20133;-80
2022/09/16 03:17:28;;;;;;;10.13;8.65;;;;;11.90;93539.00;;;;7394759;19;20157;-80
2022/09/16 03:20:23;;;;;;;10.68;8.73;;;;;11.90;93541.00;;;;7394454;19;20143;-79
2022/09/16 03:23:07;;;;;;;12.15;10.07;;;;;11.90;93534.00;;;;7395594;19;20142;-80
2022/09/16 03:26:01;;;;;;;10.95;9.13;;;;;11.80;93527.00;;;;7398523;19;20135;-80
2022/09/16 03:28:58;;;;;;;13.23;10.10;;;;;11.80;93530.00;;;;7396064;19;20129;-80
2022/09/16 03:31:44;;;;;;;17.13;9.68;;;;;11.80;93534.00;;;;7398043;19;20156;-81
2022/09/16 03:34:29;;;;;;;14.63;10.45;;;;;11.70;93526.00;;;;7393468;19;20141;-79
2022/09/16 03:37:02;;;;;;;11.90;9.65;;;;;11.70;93534.00;;;;7395088;19;20229;-80
2022/09/16 03:39:39;;;;;;;14.35;9.85;;;;;11.80;93528.00;;;;7400589;19;20140;-80
2022/09/16 03:42:10;;;;;;;10.95;9.50;;;;;11.80;93524.00;;;;7395337;19;20129;-79
2022/09/16 03:44:44;;;;;;;10.63;9.48;;;;;11.80;93525.00;;;;7396590;19;20197;-79
2022/09/16 03:47:17;;;;;;;13.63;9.88;;;;;11.80;93521.00;;;;7398952;19;20140;-79
2022/09/16 03:50:02;;;;;;;13.73;9.85;;;;;11.80;93518.00;;;;7392644;19;20472;-79
2022/09/16 03:52:30;;;;;;;13.98;8.80;;;;;11.70;93521.00;;;;7394470;19;20129;-79
2022/09/16 03:55:05;;;;;;;14.63;9.85;;;;;11.70;93520.00;;;;7395348;19;20530;-79
2022/09/16 03:57:33;;;;;;;12.07;8.57;;;;;11.70;93518.00;;;;7397018;19;20436;-79
2022/09/16 04:00:02;;;;;;;17.15;9.68;;;;;11.70;93531.00;;;;7396044;19;20181;-80
2022/09/16 04:02:36;;;;;;;15.35;8.38;;;;;11.60;93516.00;;;;7395488;19;20128;-80
2022/09/16 04:05:04;;;;;;;13.85;10.57;;;;;11.60;93516.00;;;;7396690;19;20148;-79
2022/09/16 04:07:32;;;;;;;11.20;9.38;;;;;11.60;93513.00;;;;7396089;19;20132;-80
2022/09/16 04:10:11;;;;;;;19.23;9.57;;;;;11.60;93513.00;;;;7395683;19;20733;-80
2022/09/16 04:12:38;;;;;;;13.13;8.35;;;;;11.60;93516.00;;;;7394308;19;20505;-81
2022/09/16 04:15:06;;;;;;;12.27;9.70;;;;;11.60;93513.00;;;;7395468;19;20141;-81
2022/09/16 04:17:40;;;;;;;17.30;10.68;;;;;11.60;93512.00;;;;7395329;19;20609;-79
2022/09/16 04:20:08;;;;;;;13.18;8.27;;;;;11.60;93508.00;;;;7396432;19;20497;-79
2022/09/16 04:22:39;;;;;;;14.70;10.43;;;;;11.60;93499.00;;;;7394442;19;20129;-81
2022/09/16 04:25:13;;;;;;;12.98;9.82;;;;;11.50;93504.00;;;;7396149;19;20156;-81
2022/09/16 04:27:43;;;;;;;12.38;10.27;;;;;11.50;93506.00;;;;7392152;19;20125;-80
2022/09/16 04:30:11;;;;;;;26.67;20.25;;;;;11.50;93503.00;;;;7394648;19;20518;-79
2022/09/16 04:32:45;;;;;;;15.93;12.43;;;;;11.40;93511.00;;;;7394725;19;20133;-79
2022/09/16 04:35:12;;;;;;;15.55;10.43;;;;;11.40;93495.00;;;;7393890;19;20208;-80
2022/09/16 04:37:42;;;;;;;15.20;9.32;;;;;11.30;93496.00;;;;7392648;19;20147;-79
2022/09/16 04:40:16;;;;;;;14.88;8.45;;;;;11.40;93498.00;;;;7394002;19;20148;-79
2022/09/16 04:42:53;;;;;;;11.13;8.18;;;;;11.30;93502.00;;;;7395144;19;20197;-80
2022/09/16 04:45:27;;;;;;;16.70;8.15;;;;;11.20;93499.00;;;;7396638;19;20599;-80
2022/09/16 04:48:04;;;;;;;12.20;7.20;;;;;11.20;93504.00;;;;7390843;19;20165;-80
2022/09/16 04:50:45;;;;;;;17.10;7.70;;;;;11.10;93501.00;;;;7390505;19;20144;-78
2022/09/16 04:53:12;;;;;;;18.35;7.55;;;;;11.10;93503.00;;;;7393069;19;20646;-80
2022/09/16 04:55:47;;;;;;;14.48;7.28;;;;;11.00;93506.00;;;;7394285;19;20170;-79
2022/09/16 04:58:18;;;;;;;11.48;7.57;;;;;10.90;93505.00;;;;7392863;19;20133;-80
2022/09/16 05:00:46;;;;;;;10.48;7.25;;;;;11.00;93501.00;;;;7396344;19;20611;-80
2022/09/16 05:03:20;;;;;;;10.38;6.68;;;;;10.90;93503.00;;;;7392939;19;20616;-81
2022/09/16 05:05:47;;;;;;;12.20;5.97;;;;;10.90;93498.00;;;;7397557;19;20153;-81
2022/09/16 05:08:15;;;;;;;7.57;5.90;;;;;10.80;93503.00;;;;7394376;19;20571;-79
2022/09/16 05:10:49;;;;;;;14.05;6.88;;;;;10.80;93503.00;;;;7390503;19;20135;-81
2022/09/16 05:13:16;;;;;;;12.13;6.43;;;;;10.80;93519.00;;;;7395947;19;20181;-79
2022/09/16 05:15:44;;;;;;;12.60;5.68;;;;;10.70;93518.00;;;;7392354;19;20200;-79
2022/09/16 05:18:18;;;;;;;13.63;6.25;;;;;10.70;93510.00;;;;7394265;19;20155;-79
2022/09/16 05:20:48;;;;;;;16.63;6.40;;;;;10.70;93509.00;;;;7390929;19;20141;-80
2022/09/16 05:23:15;;;;;;;8.85;5.50;;;;;10.60;93506.00;;;;7394746;19;20148;-80
2022/09/16 05:25:50;;;;;;;7.95;5.95;;;;;10.60;93507.00;;;;7391822;19;20124;-80
2022/09/16 05:28:18;;;;;;;8.93;5.63;;;;;10.50;93502.00;;;;7391413;19;20550;-79
2022/09/16 05:30:47;;;;;;;9.80;5.70;;;;;10.50;93508.00;;;;7393804;19;20208;-80
2022/09/16 05:33:22;;;;;;;10.20;5.97;;;;;10.50;93508.00;;;;7393515;19;20129;-79
2022/09/16 05:35:49;;;;;;;12.20;5.70;;;;;10.40;93505.00;;;;7393807;19;20540;-79
2022/09/16 05:38:17;;;;;;;8.98;5.75;;;;;10.40;93511.00;;;;7389340;19;20143;-78
2022/09/16 05:40:51;;;;;;;12.73;6.10;;;;;10.40;93517.00;;;;7395172;19;20164;-79
2022/09/16 05:43:19;;;;;;;10.80;5.75;;;;;10.30;93521.00;;;;7388678;19;20121;-78
2022/09/16 05:45:51;;;;;;;11.38;6.05;;;;;10.30;93505.00;;;;7391641;19;20220;-80
2022/09/16 05:48:35;;;;;;;9.15;5.47;;;;;10.30;93513.00;;;;7389010;19;20503;-79
2022/09/16 05:51:10;;;;;;;9.38;5.63;;;;;10.30;93509.00;;;;7393174;19;20140;-79
2022/09/16 05:53:48;;;;;;;15.25;6.15;;;;;10.40;93508.00;;;;7388934;19;20152;-78
2022/09/16 05:56:23;;;;;;;9.85;6.15;;;;;10.30;93514.00;;;;7391844;19;20178;-81
2022/09/16 05:58:59;;;;;;;7.82;5.47;;;;;10.30;93512.00;;;;7391663;19;20124;-80
2022/09/16 06:01:32;;;;;;;12.13;6.40;;;;;10.30;93517.00;;;;7400819;19;20148;-79
2022/09/16 06:04:09;;;;;;;10.75;6.20;;;;;10.40;93521.00;;;;7404145;19;20145;-79
2022/09/16 06:06:39;;;;;;;8.88;6.20;;;;;10.40;93521.00;;;;7408785;19;20236;-79
2022/09/16 06:09:19;;;;;;;9.55;6.13;;;;;10.40;93518.00;;;;7404199;19;20140;-78
2022/09/16 06:11:49;;;;;;;12.90;6.68;;;;;10.40;93513.00;;;;7401161;19;20152;-79
2022/09/16 06:14:28;;;;;;;12.10;6.75;;;;;10.40;93517.00;;;;7401112;19;20131;-79
2022/09/16 06:16:56;;;;;;;9.02;6.40;;;;;10.40;93514.00;;;;7401326;19;20156;-78
2022/09/16 06:19:30;;;;;;;13.98;7.43;;;;;10.40;93515.00;;;;7397712;19;20536;-78
2022/09/16 06:21:57;;;;;;;12.95;7.18;;;;;10.40;93518.00;;;;7397813;19;20128;-77
2022/09/16 06:24:25;;;;;;;11.32;6.47;;;;;10.40;93523.00;;;;7395594;19;20140;-80
2022/09/16 06:26:59;;;;;;;9.90;7.03;;;;;10.30;93524.00;;;;7399095;19;20230;-80
2022/09/16 06:29:26;;;;;;;13.93;7.22;;;;;10.40;93514.00;;;;7399605;19;20165;-80
2022/09/16 06:31:54;;;;;;;11.43;6.93;;;;;10.40;93514.00;;;;7392673;19;20137;-79
2022/09/16 06:34:28;;;;;;;16.08;8.00;;;;;10.40;93522.00;;;;7395723;19;20661;-79
2022/09/16 06:36:56;;;;;;;13.18;7.75;;;;;10.40;93516.00;;;;7397359;19;20136;-78
2022/09/16 06:39:23;;;;;;;14.35;8.68;;;;;10.40;93517.00;;;;7397910;19;20140;-79
2022/09/16 06:41:57;;;;;;;11.70;8.15;;;;;10.30;93518.00;;;;7399289;19;20216;-79
2022/09/16 06:44:24;;;;;;;18.08;9.27;;;;;10.40;93524.00;;;;7395826;19;20584;-79
2022/09/16 06:46:52;;;;;;;11.27;8.50;;;;;10.30;93524.00;;;;7397505;19;20211;-77
2022/09/16 06:49:33;;;;;;;15.38;8.77;;;;;10.30;93524.00;;;;7395548;19;20194;-77
2022/09/16 06:52:00;;;;;;;14.80;8.48;;;;;10.30;93526.00;;;;7394056;19;20172;-77
2022/09/16 06:54:34;;;;;;;18.25;10.60;;;;;10.30;93524.00;;;;7397708;19;20521;-77
2022/09/16 06:57:01;;;;;;;16.83;9.68;;;;;10.40;93512.00;;;;7394990;19;20139;-77
2022/09/16 06:59:29;;;;;;;14.35;9.57;;;;;10.40;93521.00;;;;7394731;19;20137;-77
2022/09/16 07:02:03;;;;;;;15.43;10.45;;;;;10.50;93528.00;;;;7399291;19;20144;-77
2022/09/16 07:04:31;;;;;;;18.10;11.05;;;;;10.50;93529.00;;;;7395076;19;20551;-78
2022/09/16 07:06:59;;;;;;;17.63;12.18;;;;;10.30;93536.00;;;;7399249;19;20469;-77
2022/09/16 07:09:37;;;;;;;17.95;10.88;;;;;10.30;93535.00;;;;7397096;19;20152;-77
2022/09/16 07:12:05;;;;;;;15.77;10.07;;;;;10.40;93522.00;;;;7393710;19;20192;-77
2022/09/16 07:14:33;;;;;;;12.82;9.35;;;;;10.50;93524.00;;;;7395123;19;20212;-77
2022/09/16 07:17:07;;;;;;;14.52;10.57;;;;;10.40;93527.00;;;;7397913;19;20148;-77
2022/09/16 07:19:35;;;;;;;16.25;10.02;;;;;10.40;93527.00;;;;7395215;19;20640;-79
2022/09/16 07:22:02;;;;;;;17.80;9.98;;;;;10.40;93530.00;;;;7397694;19;20608;-78
2022/09/16 07:24:36;;;;;;;18.10;9.98;;;;;10.50;93521.00;;;;7392306;19;20608;-78
2022/09/16 07:27:03;;;;;;;11.82;9.27;;;;;10.50;93528.00;;;;7397453;19;20131;-78
2022/09/16 07:29:31;;;;;;;12.07;7.97;;;;;10.50;93528.00;;;;7395286;19;20496;-78
2022/09/16 07:32:06;;;;;;;10.60;7.95;;;;;10.60;93526.00;;;;7394890;19;20624;-77
2022/09/16 07:34:33;;;;;;;15.05;7.43;;;;;10.70;93530.00;;;;7395910;19;21034;-78
2022/09/16 07:37:00;;;;;;;9.48;6.63;;;;;10.80;93529.00;;;;7394028;19;20168;-77
2022/09/16 07:39:35;;;;;;;7.40;5.72;;;;;10.90;93542.00;;;;7394760;19;20144;-78
2022/09/16 07:42:03;;;;;;;8.85;6.60;;;;;10.90;93539.00;;;;7396961;19;20137;-78
2022/09/16 07:44:32;;;;;;;7.53;6.35;;;;;11.00;93550.00;;;;7393260;19;20144;-80
2022/09/16 07:47:06;;;;;;;7.53;6.00;;;;;10.70;93555.00;;;;7396803;19;20619;-79
2022/09/16 07:49:41;;;;;;;7.20;5.20;;;;;10.60;93551.00;;;;7399032;19;20161;-81
2022/09/16 07:52:15;;;;;;;7.43;5.22;;;;;10.40;93548.00;;;;7393645;19;20133;-80
2022/09/16 07:54:44;;;;;;;7.72;4.85;;;;;10.50;93547.00;;;;7401337;19;20133;-80
2022/09/16 07:57:11;;;;;;;7.88;5.03;;;;;10.60;93547.00;;;;7410285;19;20158;-81
2022/09/16 07:59:46;;;;;;;9.45;5.95;;;;;10.60;93552.00;;;;7400668;19;20129;-80
2022/09/16 08:02:15;;;;;;;7.78;5.47;;;;;10.60;93550.00;;;;7398004;19;20129;-81
2022/09/16 08:04:43;;;;;;;9.15;5.30;;;;;10.70;93554.00;;;;7401058;19;20174;-80
2022/09/16 08:07:17;;;;;;;8.77;5.28;;;;;10.70;93547.00;;;;7402570;19;20133;-79
2022/09/16 08:09:45;;;;;;;9.77;5.47;;;;;10.70;93549.00;;;;7424721;19;20132;-81
2022/09/16 08:12:20;;;;;;;6.65;5.78;;;;;10.80;93557.00;;;;7402101;19;20157;-80
2022/09/16 08:14:54;;;;;;;7.03;4.53;;;;;10.70;93558.00;;;;7405624;19;20203;-80
2022/09/16 08:17:21;;;;;;;7.97;4.75;;;;;10.70;93566.00;;;;7414926;19;20141;-81
2022/09/16 08:19:49;;;;;;;8.15;4.85;;;;;10.70;93568.00;;;;7410206;19;20149;-81
2022/09/16 08:22:24;;;;;;;5.93;5.15;;;;;10.80;93569.00;;;;7411684;19;20132;-79
2022/09/16 08:24:59;;;;;;;6.57;5.30;;;;;10.80;93569.00;;;;7413238;19;20959;-80
2022/09/16 08:27:52;;;;;;;5.75;5.00;;;;;11.10;93573.00;;;;7410830;19;20188;-76
2022/09/16 08:30:42;;;;;;;8.38;4.68;;;;;10.90;93574.00;;;;7368234;19;20243;-81
2022/09/16 08:33:23;;;;;;;6.25;4.03;;;;;11.00;93569.00;;;;7417790;19;20156;-83
2022/09/16 08:36:00;;;;;;;5.82;4.32;;;;;10.70;93578.00;;;;7426378;19;20129;-85
2022/09/16 08:38:43;;;;;;;8.65;5.07;;;;;10.90;93579.00;;;;7417072;19;20207;-77
2022/09/16 08:41:38;;;;;;;7.05;4.22;;;;;11.00;93576.00;;;;7403521;19;20206;-77
2022/09/16 08:45:13;;;;;;;7.28;4.75;;;;;11.00;93582.00;;;;7216815;19;20184;-77
2022/09/16 08:50:33;;;;;;;7.95;4.20;;;;;10.90;93585.00;;;;7405362;19;20176;-81
2022/09/16 08:53:05;;;;;;;7.75;3.95;;;;;10.90;93577.00;;;;7409414;19;20140;-81
2022/09/16 08:55:45;;;;;;;7.55;3.97;;;;;10.90;93581.00;;;;7408235;19;20132;-80
2022/09/16 08:58:19;;;;;;;5.00;3.95;;;;;10.90;93584.00;;;;7407460;19;20121;-80
2022/09/16 09:01:01;;;;;;;5.38;3.70;;;;;10.90;93586.00;;;;7402240;19;20132;-81
2022/09/16 09:03:41;;;;;;;6.35;3.50;;;;;10.90;93584.00;;;;7397878;19;20163;-81
2022/09/16 09:06:36;;;;;;;7.82;4.80;;;;;11.10;93580.00;;;;7412746;19;20133;-79
2022/09/16 09:09:18;;;;;;;7.47;4.00;;;;;11.00;93575.00;;;;7408407;19;20145;-79
2022/09/16 09:12:26;;;;;;;4.63;3.70;;;;;11.10;93588.00;;;;7411240;19;20223;-79
2022/09/16 09:15:27;;;;;;;4.18;3.30;;;;;11.30;93584.00;;;;7399969;19;20137;-82
2022/09/16 09:18:18;;;;;;;3.97;3.55;;;;;11.30;93585.00;;;;7392034;19;20195;-80
2022/09/16 09:21:25;;;;;;;5.60;3.20;;;;;11.30;93578.00;;;;7423630;19;20125;-79
2022/09/16 09:24:28;;;;;;;7.57;3.50;;;;;11.40;93571.00;;;;7397850;19;20604;-81
2022/09/16 09:27:15;;;;;;;6.13;3.20;;;;;11.40;93571.00;;;;7399231;19;20635;-81
2022/09/16 09:30:22;;;;;;;5.32;3.17;;;;;11.40;93571.00;;;;7407041;19;20150;-80
2022/09/16 09:33:14;;;;;;;5.20;3.15;;;;;11.70;93566.00;;;;7425426;19;20172;-83
2022/09/16 09:36:28;;;;;;;6.30;3.35;;;;;11.30;93561.00;;;;7397545;19;20192;-82
2022/09/16 09:39:25;;;;;;;5.70;3.38;;;;;11.30;93565.00;;;;7414805;19;20164;-80
2022/09/16 09:42:10;;;;;;;9.98;4.90;;;;;11.60;93570.00;;;;7415673;19;20211;-79
2022/09/16 09:44:56;;;;;;;8.73;3.72;;;;;11.70;93577.00;;;;7415067;19;20160;-81
2022/09/16 09:47:41;;;;;;;4.22;3.17;;;;;11.50;93576.00;;;;7410852;19;20151;-80
2022/09/16 09:50:15;;;;;;;6.10;3.45;;;;;11.50;93574.00;;;;7412834;19;20157;-81
2022/09/16 09:53:20;;;;;;;6.95;3.50;;;;;11.40;93582.00;;;;7423106;19;20121;-81
2022/09/16 09:55:53;;;;;;;6.95;3.33;;;;;11.30;93589.00;;;;7398478;19;20153;-80
2022/09/16 09:58:39;;;;;;;8.40;3.33;;;;;11.30;93588.00;;;;7400934;19;20145;-80
2022/09/16 10:01:08;;;;;;;7.63;3.42;;;;;10.90;93594.00;;;;7410950;19;20125;-79
2022/09/16 10:03:49;;;;;;;4.85;3.15;;;;;10.90;93590.00;;;;7394124;19;20815;-82
2022/09/16 10:06:32;;;;;;;3.20;2.60;;;;;11.00;93582.00;;;;7411442;19;20136;-79
2022/09/16 10:09:14;;;;;;;4.85;3.15;;;;;11.20;93581.00;;;;7419973;19;20128;-81
2022/09/16 10:11:55;;;;;;;6.32;3.13;;;;;11.40;93571.00;;;;7425218;19;20132;-81
2022/09/16 10:14:38;;;;;;;4.78;3.13;;;;;11.40;93574.00;;;;7414430;19;20191;-82
2022/09/16 10:17:22;;;;;;;10.95;3.58;;;;;11.70;93586.00;;;;7416856;19;20188;-79
2022/09/16 10:20:33;;;;;;;5.00;3.22;;;;;11.80;93572.00;;;;7421781;19;20140;-82
2022/09/16 10:23:19;;;;;;;6.65;3.00;;;;;11.80;93578.00;;;;7419333;19;20187;-82
2022/09/16 10:26:24;;;;;;;5.05;2.60;;;;;11.80;93576.00;;;;7418311;19;20141;-78
2022/09/16 10:28:57;;;;;;;9.10;2.95;;;;;11.90;93582.00;;;;7420722;19;20141;-82
2022/09/16 10:31:36;;;;;;;5.18;2.60;;;;;11.80;93580.00;;;;7422597;19;20634;-80
2022/09/16 10:34:15;;;;;;;5.68;2.78;;;;;12.00;93581.00;;;;7424274;19;20168;-81
2022/09/16 10:37:05;;;;;;;4.80;2.40;;;;;12.10;93590.00;;;;7405310;19;20223;-79
2022/09/16 10:39:49;;;;;;;5.90;2.65;;;;;12.00;93596.00;;;;7418030;19;20153;-73
2022/09/16 10:45:35;;;;;;;8.07;2.90;;;;;11.70;93588.00;;;;7398316;19;20200;-82
2022/09/16 10:48:19;;;;;;;4.32;2.55;;;;;11.40;93589.00;;;;7413494;19;20626;-82
2022/09/16 10:50:56;;;;;;;4.00;2.30;;;;;11.30;93604.00;;;;7415004;19;20777;-81
2022/09/16 10:53:43;;;;;;;7.47;2.40;;;;;11.10;93612.00;;;;7404843;19;20153;-81
2022/09/16 10:56:21;;;;;;;5.35;2.75;;;;;11.00;93600.00;;;;7414589;19;20137;-81
2022/09/16 10:59:13;;;;;;;3.17;2.70;;;;;10.90;93603.00;;;;7404454;19;20154;-81
2022/09/16 11:02:07;;;;;;;6.63;2.90;;;;;10.70;93605.00;;;;7404295;19;20141;-80
2022/09/16 11:05:08;;;;;;;3.75;2.83;;;;;10.60;93607.00;;;;7416965;19;20160;-80
2022/09/16 11:08:07;;;;;;;6.45;3.20;;;;;10.60;93591.00;;;;7408910;19;20184;-82
2022/09/16 11:11:04;;;;;;;8.55;3.63;;;;;10.90;93596.00;;;;7423661;19;20120;-82
2022/09/16 11:13:55;;;;;;;9.75;3.80;;;;;11.30;93592.00;;;;7418500;19;20127;-82
2022/09/16 11:16:48;;;;;;;3.53;2.67;;;;;11.40;93587.00;;;;7415347;19;20642;-80
2022/09/16 11:19:37;;;;;;;3.38;2.85;;;;;11.60;93582.00;;;;7408763;19;20149;-81
2022/09/16 11:22:24;;;;;;;9.38;3.20;;;;;11.60;93592.00;;;;7410089;19;20133;-80
2022/09/16 11:25:17;;;;;;;7.35;3.22;;;;;11.70;93580.00;;;;7407873;19;20133;-81
2022/09/16 11:28:00;;;;;;;5.45;3.13;;;;;12.30;93578.00;;;;7402198;19;20149;-80
2022/09/16 11:30:36;;;;;;;4.28;2.70;;;;;12.30;93587.00;;;;7406500;19;20204;-82
2022/09/16 11:33:24;;;;;;;7.43;3.70;;;;;12.80;93583.00;;;;7396525;19;20164;-81
2022/09/16 11:36:12;;;;;;;3.88;2.75;;;;;13.00;93587.00;;;;7402296;19;20159;-80
2022/09/16 11:38:59;;;;;;;7.20;2.95;;;;;12.80;93596.00;;;;7398849;19;20178;-79
2022/09/16 11:41:35;;;;;;;7.25;3.03;;;;;12.30;93597.00;;;;7399260;19;20153;-78
2022/09/16 11:44:37;;;;;;;6.78;3.55;;;;;11.90;93590.00;;;;7403429;19;20129;-80
2022/09/16 11:47:20;;;;;;;10.80;3.85;;;;;12.60;93574.00;;;;7410357;19;20153;-80
2022/09/16 11:50:02;;;;;;;4.78;3.38;;;;;13.20;93575.00;;;;7400485;19;20515;-78
2022/09/16 11:53:21;;;;;;;6.38;3.33;;;;;14.00;93571.00;;;;7404633;19;20135;-79
2022/09/16 11:56:34;;;;;;;3.40;2.53;;;;;14.80;93571.00;;;;7396559;19;20152;-79
2022/09/16 11:59:17;;;;;;;6.45;2.47;;;;;14.30;93566.00;;;;7395384;19;20144;-78
2022/09/16 12:02:11;;;;;;;4.18;2.30;;;;;14.20;93560.00;;;;7399731;19;20153;-76
2022/09/16 12:04:58;;;;;;;3.33;2.33;;;;;13.70;93575.00;;;;7397168;19;20161;-78
2022/09/16 12:07:45;;;;;;;5.68;2.33;;;;;13.60;93561.00;;;;7390506;19;20165;-77
2022/09/16 12:10:47;;;;;;;7.50;2.60;;;;;13.30;93567.00;;;;7395414;19;20511;-79
2022/09/16 12:13:33;;;;;;;5.93;2.90;;;;;13.60;93567.00;;;;7392497;19;20487;-81
2022/09/16 12:16:08;;;;;;;6.07;2.63;;;;;13.60;93573.00;;;;7395293;19;20140;-78
2022/09/16 12:18:49;;;;;;;4.03;2.42;;;;;13.40;93564.00;;;;7394746;19;20594;-78
2022/09/16 12:21:34;;;;;;;3.03;2.05;;;;;13.10;93565.00;;;;7391328;19;20628;-78
2022/09/16 12:24:41;;;;;;;6.35;2.15;;;;;13.30;93568.00;;;;7393890;19;20871;-78
2022/09/16 12:27:41;;;;;;;4.50;2.15;;;;;13.20;93557.00;;;;7393830;19;20148;-80
2022/09/16 12:30:35;;;;;;;2.85;2.10;;;;;13.30;93539.00;;;;7393374;19;20862;-78
2022/09/16 12:33:31;;;;;;;5.47;2.20;;;;;14.20;93531.00;;;;7394396;19;20152;-79
2022/09/16 12:36:17;;;;;;;2.47;1.98;;;;;15.00;93527.00;;;;7387403;19;20156;-78
2022/09/16 12:38:49;;;;;;;5.28;1.73;;;;;14.60;93542.00;;;;7393893;19;20152;-79
2022/09/16 12:41:42;;;;;;;4.10;1.67;;;;;14.90;93543.00;;;;7396882;19;20162;-78
2022/09/16 12:44:29;;;;;;;6.00;2.05;;;;;14.20;93536.00;;;;7395830;19;20124;-78
2022/09/16 12:47:10;;;;;;;3.33;1.95;;;;;14.50;93537.00;;;;7395063;19;20172;-78
2022/09/16 12:49:50;;;;;;;4.53;2.00;;;;;14.40;93541.00;;;;7394247;19;20131;-79
2022/09/16 12:52:55;;;;;;;7.20;2.40;;;;;14.60;93537.00;;;;7391702;19;20534;-76
2022/09/16 12:55:53;;;;;;;3.97;1.80;;;;;14.50;93540.00;;;;7396889;19;20132;-78
2022/09/16 12:59:08;;;;;;;6.82;2.10;;;;;14.80;93540.00;;;;7393454;19;20152;-75
2022/09/16 13:01:42;;;;;;;3.83;2.05;;;;;14.60;93536.00;;;;7392850;19;20117;-77
2022/09/16 13:04:43;;;;;;;2.38;1.90;;;;;14.90;93528.00;;;;7392520;19;20125;-76
2022/09/16 13:07:31;;;;;;;8.85;2.50;;;;;14.50;93534.00;;;;7391291;19;20526;-75
2022/09/16 13:10:14;;;;;;;6.18;1.92;;;;;14.90;93531.00;;;;7392518;19;20133;-76
2022/09/16 13:12:54;;;;;;;3.97;2.22;;;;;15.00;93534.00;;;;7391590;19;20803;-77
2022/09/16 13:15:33;;;;;;;8.35;3.08;;;;;15.10;93519.00;;;;7396420;19;20129;-75
2022/09/16 13:18:41;;;;;;;3.15;1.75;;;;;14.90;93522.00;;;;7391509;19;20741;-77
2022/09/16 13:21:26;;;;;;;6.13;1.90;;;;;14.80;93519.00;;;;7394188;19;20208;-74